sensor_id;sensor_type;location;lat;lon;timestamp;pressure;altitude;pressure_sealevel;temperature;humidity
47524;BME280;33253;42.144;25.884;2022-11-15T00:00:08;101272.00;;;8.15;100.00
47524;BME280;33253;42.144;25.884;2022-11-15T00:02:34;101276.97;;;8.12;100.00
47524;BME280;33253;42.144;25.884;2022-11-15T00:05:20;101181.75;;;7.38;100.00
47524;BME280;33253;42.144;25.884;2022-11-15T00:07:45;101197.84;;;7.36;100.00
47524;BME280;33253;42.144;25.884;2022-11-15T00:10:11;101271.16;;;7.72;100.00
47524;BME280;33253;42.144;25.884;2022-11-15T00:12:36;101277.91;;;7.70;100.00
47524;BME280;33253;42.144;25.884;2022-11-15T00:15:02;101294.34;;;7.59;100.00
47524;BME280;33253;42.144;25.884;2022-11-15T00:17:28;101276.06;;;7.54;100.00
47524;BME280;33253;42.144;25.884;2022-11-15T00:19:53;101274.22;;;7.38;100.00
47524;BME280;33253;42.144;25.884;2022-11-15T00:22:18;101271.47;;;7.35;100.00
47524;BME280;33253;42.144;25.884;2022-11-15T00:24:44;101270.19;;;7.28;100.00
47524;BME280;33253;42.144;25.884;2022-11-15T00:27:09;101228.16;;;7.00;100.00
47524;BME280;33253;42.144;25.884;2022-11-15T00:29:35;101267.44;;;7.12;100.00
47524;BME280;33253;42.144;25.884;2022-11-15T00:32:02;101142.69;;;6.34;100.00
47524;BME280;33253;42.144;25.884;2022-11-15T00:34:28;101262.00;;;7.07;100.00
47524;BME280;33253;42.144;25.884;2022-11-15T00:36:53;101259.44;;;7.07;100.00
47524;BME280;33253;42.144;25.884;2022-11-15T00:39:18;101230.53;;;6.70;100.00
47524;BME280;33253;42.144;25.884;2022-11-15T00:41:44;101260.03;;;6.76;100.00
47524;BME280;33253;42.144;25.884;2022-11-15T00:44:09;101234.25;;;6.48;100.00
47524;BME280;33253;42.144;25.884;2022-11-15T00:46:34;101268.44;;;6.60;100.00
47524;BME280;33253;42.144;25.884;2022-11-15T00:49:00;101252.63;;;6.54;100.00
47524;BME280;33253;42.144;25.884;2022-11-15T00:51:25;101252.88;;;6.45;100.00
47524;BME280;33253;42.144;25.884;2022-11-15T00:53:51;101262.94;;;6.42;100.00
47524;BME280;33253;42.144;25.884;2022-11-15T00:56:16;101245.47;;;6.37;100.00
47524;BME280;33253;42.144;25.884;2022-11-15T00:58:41;101202.84;;;6.12;100.00
47524;BME280;33253;42.144;25.884;2022-11-15T01:01:12;101209.44;;;6.22;100.00
47524;BME280;33253;42.144;25.884;2022-11-15T01:03:38;101250.53;;;6.48;100.00
47524;BME280;33253;42.144;25.884;2022-11-15T01:06:05;101236.84;;;6.48;100.00
47524;BME280;33253;42.144;25.884;2022-11-15T01:08:31;101238.72;;;6.51;100.00
47524;BME280;33253;42.144;25.884;2022-11-15T01:11:10;101237.03;;;6.51;100.00
47524;BME280;33253;42.144;25.884;2022-11-15T01:13:37;101231.69;;;6.48;100.00
47524;BME280;33253;42.144;25.884;2022-11-15T01:16:12;101231.78;;;6.50;100.00
47524;BME280;33253;42.144;25.884;2022-11-15T01:18:38;101233.25;;;6.46;100.00
47524;BME280;33253;42.144;25.884;2022-11-15T01:21:09;101168.41;;;6.08;100.00
47524;BME280;33253;42.144;25.884;2022-11-15T01:23:36;101179.84;;;6.13;100.00
47524;BME280;33253;42.144;25.884;2022-11-15T01:26:03;101213.03;;;6.37;100.00
47524;BME280;33253;42.144;25.884;2022-11-15T01:28:31;101204.44;;;6.37;100.00
47524;BME280;33253;42.144;25.884;2022-11-15T01:31:00;101121.16;;;5.79;100.00
47524;BME280;33253;42.144;25.884;2022-11-15T01:33:27;101224.66;;;6.45;100.00
47524;BME280;33253;42.144;25.884;2022-11-15T01:35:53;101225.97;;;6.52;100.00
47524;BME280;33253;42.144;25.884;2022-11-15T01:38:18;101225.06;;;6.52;100.00
47524;BME280;33253;42.144;25.884;2022-11-15T01:40:44;101216.59;;;6.53;100.00
47524;BME280;33253;42.144;25.884;2022-11-15T01:43:38;101216.03;;;6.57;100.00
47524;BME280;33253;42.144;25.884;2022-11-15T01:46:14;101210.97;;;6.58;100.00
47524;BME280;33253;42.144;25.884;2022-11-15T01:48:47;101184.63;;;6.47;100.00
47524;BME280;33253;42.144;25.884;2022-11-15T01:51:16;101213.03;;;6.64;100.00
47524;BME280;33253;42.144;25.884;2022-11-15T01:53:46;101212.56;;;6.70;100.00
47524;BME280;33253;42.144;25.884;2022-11-15T01:56:19;101212.56;;;6.70;100.00
47524;BME280;33253;42.144;25.884;2022-11-15T01:58:45;101198.25;;;6.60;100.00
47524;BME280;33253;42.144;25.884;2022-11-15T02:01:12;101208.22;;;6.69;100.00
47524;BME280;33253;42.144;25.884;2022-11-15T02:04:06;101206.56;;;6.69;100.00
47524;BME280;33253;42.144;25.884;2022-11-15T02:06:34;101080.41;;;5.96;100.00
47524;BME280;33253;42.144;25.884;2022-11-15T02:09:01;101219.25;;;6.68;100.00
47524;BME280;33253;42.144;25.884;2022-11-15T02:11:27;101182.47;;;6.54;100.00
47524;BME280;33253;42.144;25.884;2022-11-15T02:13:53;101190.75;;;6.63;100.00
47524;BME280;33253;42.144;25.884;2022-11-15T02:35:32;101116.88;;;5.92;100.00
47524;BME280;33253;42.144;25.884;2022-11-15T02:38:11;101198.72;;;6.41;100.00
47524;BME280;33253;42.144;25.884;2022-11-15T02:41:02;101201.59;;;6.32;100.00
47524;BME280;33253;42.144;25.884;2022-11-15T02:43:47;101196.16;;;6.41;100.00
47524;BME280;33253;42.144;25.884;2022-11-15T02:46:41;101185.50;;;6.35;100.00
47524;BME280;33253;42.144;25.884;2022-11-15T02:49:29;101199.53;;;6.40;100.00
47524;BME280;33253;42.144;25.884;2022-11-15T02:51:57;101200.41;;;6.40;100.00
47524;BME280;33253;42.144;25.884;2022-11-15T02:54:25;101199.81;;;6.44;100.00
47524;BME280;33253;42.144;25.884;2022-11-15T02:56:55;101200.31;;;6.39;100.00
47524;BME280;33253;42.144;25.884;2022-11-15T03:07:31;101187.28;;;6.36;100.00
47524;BME280;33253;42.144;25.884;2022-11-15T03:09:56;101082.38;;;5.87;100.00
47524;BME280;33253;42.144;25.884;2022-11-15T03:12:30;101186.41;;;6.48;100.00
47524;BME280;33253;42.144;25.884;2022-11-15T03:15:21;101184.44;;;6.44;100.00
47524;BME280;33253;42.144;25.884;2022-11-15T03:20:19;101192.81;;;6.42;100.00
47524;BME280;33253;42.144;25.884;2022-11-15T03:22:47;101164.59;;;6.28;100.00
47524;BME280;33253;42.144;25.884;2022-11-15T03:25:17;101133.22;;;6.32;100.00
47524;BME280;33253;42.144;25.884;2022-11-15T03:27:48;101169.31;;;6.49;100.00
47524;BME280;33253;42.144;25.884;2022-11-15T03:30:16;101172.09;;;6.52;100.00
47524;BME280;33253;42.144;25.884;2022-11-15T03:32:54;101073.59;;;5.96;100.00
47524;BME280;33253;42.144;25.884;2022-11-15T03:35:22;101167.16;;;6.55;100.00
47524;BME280;33253;42.144;25.884;2022-11-15T03:40:38;101170.31;;;6.64;100.00
47524;BME280;33253;42.144;25.884;2022-11-15T03:45:40;101046.09;;;5.80;100.00
47524;BME280;33253;42.144;25.884;2022-11-15T03:48:13;101063.34;;;5.70;100.00
47524;BME280;33253;42.144;25.884;2022-11-15T03:50:40;101172.97;;;6.26;100.00
47524;BME280;33253;42.144;25.884;2022-11-15T03:53:07;101162.22;;;6.31;100.00
47524;BME280;33253;42.144;25.884;2022-11-15T03:55:33;101158.88;;;6.32;100.00
47524;BME280;33253;42.144;25.884;2022-11-15T03:58:00;101152.72;;;6.30;100.00
47524;BME280;33253;42.144;25.884;2022-11-15T04:00:27;101160.25;;;6.27;100.00
47524;BME280;33253;42.144;25.884;2022-11-15T04:02:52;101162.50;;;6.23;100.00
47524;BME280;33253;42.144;25.884;2022-11-15T04:05:18;101155.22;;;6.29;100.00
47524;BME280;33253;42.144;25.884;2022-11-15T04:07:43;101153.56;;;6.29;100.00
47524;BME280;33253;42.144;25.884;2022-11-15T04:10:10;101151.94;;;6.31;100.00
47524;BME280;33253;42.144;25.884;2022-11-15T04:12:38;101157.19;;;6.46;100.00
47524;BME280;33253;42.144;25.884;2022-11-15T04:15:12;101154.22;;;6.54;100.00
47524;BME280;33253;42.144;25.884;2022-11-15T04:17:39;101154.63;;;6.60;100.00
47524;BME280;33253;42.144;25.884;2022-11-15T04:20:17;101147.63;;;6.57;100.00
47524;BME280;33253;42.144;25.884;2022-11-15T04:23:09;101164.50;;;6.67;100.00
47524;BME280;33253;42.144;25.884;2022-11-15T04:25:54;101146.44;;;6.66;100.00
47524;BME280;33253;42.144;25.884;2022-11-15T04:28:21;100921.03;;;5.34;100.00
47524;BME280;33253;42.144;25.884;2022-11-15T04:30:47;101157.97;;;6.72;100.00
47524;BME280;33253;42.144;25.884;2022-11-15T04:33:12;101145.16;;;6.72;100.00
47524;BME280;33253;42.144;25.884;2022-11-15T04:35:38;101137.16;;;6.68;100.00
47524;BME280;33253;42.144;25.884;2022-11-15T04:38:05;101146.22;;;6.89;100.00
47524;BME280;33253;42.144;25.884;2022-11-15T04:40:31;101143.75;;;6.91;100.00
47524;BME280;33253;42.144;25.884;2022-11-15T04:42:57;101150.66;;;6.92;100.00
47524;BME280;33253;42.144;25.884;2022-11-15T04:45:24;101144.41;;;7.02;100.00
47524;BME280;33253;42.144;25.884;2022-11-15T04:47:49;101147.16;;;7.05;100.00
47524;BME280;33253;42.144;25.884;2022-11-15T04:50:15;101141.41;;;7.09;100.00
47524;BME280;33253;42.144;25.884;2022-11-15T04:52:42;101145.84;;;7.11;100.00
47524;BME280;33253;42.144;25.884;2022-11-15T04:55:11;101149.72;;;7.18;100.00
47524;BME280;33253;42.144;25.884;2022-11-15T04:57:37;101146.53;;;7.22;100.00
47524;BME280;33253;42.144;25.884;2022-11-15T05:00:11;101138.06;;;7.10;100.00
47524;BME280;33253;42.144;25.884;2022-11-15T05:02:37;101150.72;;;7.07;100.00
47524;BME280;33253;42.144;25.884;2022-11-15T05:05:21;101145.00;;;6.97;100.00
47524;BME280;33253;42.144;25.884;2022-11-15T05:07:47;101143.91;;;6.94;100.00
47524;BME280;33253;42.144;25.884;2022-11-15T05:10:12;101150.44;;;6.89;100.00
47524;BME280;33253;42.144;25.884;2022-11-15T05:12:38;101025.53;;;6.19;100.00
47524;BME280;33253;42.144;25.884;2022-11-15T05:15:04;101151.13;;;7.00;100.00
47524;BME280;33253;42.144;25.884;2022-11-15T05:17:29;101154.78;;;7.03;100.00
47524;BME280;33253;42.144;25.884;2022-11-15T05:19:55;101147.25;;;7.06;100.00
47524;BME280;33253;42.144;25.884;2022-11-15T05:22:21;101145.59;;;7.07;100.00
47524;BME280;33253;42.144;25.884;2022-11-15T05:24:46;101129.81;;;7.01;100.00
47524;BME280;33253;42.144;25.884;2022-11-15T05:27:11;101153.28;;;7.07;100.00
47524;BME280;33253;42.144;25.884;2022-11-15T05:29:37;101160.22;;;7.08;100.00
47524;BME280;33253;42.144;25.884;2022-11-15T05:32:06;101143.97;;;7.09;100.00
47524;BME280;33253;42.144;25.884;2022-11-15T05:34:33;100918.75;;;5.79;100.00
47524;BME280;33253;42.144;25.884;2022-11-15T05:36:59;101145.84;;;7.11;100.00
47524;BME280;33253;42.144;25.884;2022-11-15T05:39:24;101150.34;;;7.01;100.00
47524;BME280;33253;42.144;25.884;2022-11-15T05:42:10;101134.16;;;7.02;100.00
47524;BME280;33253;42.144;25.884;2022-11-15T05:44:39;101153.28;;;7.07;100.00
47524;BME280;33253;42.144;25.884;2022-11-15T05:47:08;101156.72;;;7.07;100.00
47524;BME280;33253;42.144;25.884;2022-11-15T05:49:37;101159.59;;;7.12;100.00
47524;BME280;33253;42.144;25.884;2022-11-15T05:52:05;101160.59;;;7.14;100.00
47524;BME280;33253;42.144;25.884;2022-11-15T05:54:33;101148.34;;;7.10;100.00
47524;BME280;33253;42.144;25.884;2022-11-15T05:56:59;101168.38;;;7.16;100.00
47524;BME280;33253;42.144;25.884;2022-11-15T05:59:25;101177.34;;;7.22;100.00
47524;BME280;33253;42.144;25.884;2022-11-15T06:01:53;101172.28;;;7.24;100.00
47524;BME280;33253;42.144;25.884;2022-11-15T06:04:18;101168.75;;;7.22;100.00
47524;BME280;33253;42.144;25.884;2022-11-15T06:06:44;101168.56;;;7.19;100.00
47524;BME280;33253;42.144;25.884;2022-11-15T06:09:09;101169.63;;;7.22;100.00
47524;BME280;33253;42.144;25.884;2022-11-15T06:11:34;101169.84;;;7.25;100.00
47524;BME280;33253;42.144;25.884;2022-11-15T06:14:00;101173.38;;;7.27;100.00
47524;BME280;33253;42.144;25.884;2022-11-15T06:16:26;101169.31;;;7.31;100.00
47524;BME280;33253;42.144;25.884;2022-11-15T06:18:52;101147.63;;;7.12;100.00
47524;BME280;33253;42.144;25.884;2022-11-15T06:21:17;101158.19;;;7.17;100.00
47524;BME280;33253;42.144;25.884;2022-11-15T06:23:42;101173.75;;;7.34;100.00
47524;BME280;33253;42.144;25.884;2022-11-15T06:26:08;101167.66;;;7.32;100.00
47524;BME280;33253;42.144;25.884;2022-11-15T06:28:33;101045.00;;;6.57;100.00
47524;BME280;33253;42.144;25.884;2022-11-15T06:31:06;101172.25;;;7.37;100.00
47524;BME280;33253;42.144;25.884;2022-11-15T06:33:32;101174.31;;;7.43;100.00
47524;BME280;33253;42.144;25.884;2022-11-15T06:36:05;101155.69;;;7.32;100.00
47524;BME280;33253;42.144;25.884;2022-11-15T06:38:32;101164.56;;;7.37;100.00
47524;BME280;33253;42.144;25.884;2022-11-15T06:41:02;101176.53;;;7.37;100.00
47524;BME280;33253;42.144;25.884;2022-11-15T06:43:29;101153.72;;;7.28;100.00
47524;BME280;33253;42.144;25.884;2022-11-15T06:45:54;101171.47;;;7.38;100.00
47524;BME280;33253;42.144;25.884;2022-11-15T06:48:20;101143.56;;;7.16;100.00
47524;BME280;33253;42.144;25.884;2022-11-15T06:50:51;101174.66;;;7.34;100.00
47524;BME280;33253;42.144;25.884;2022-11-15T06:53:17;101182.25;;;7.33;100.00
47524;BME280;33253;42.144;25.884;2022-11-15T06:55:42;101180.88;;;7.38;100.00
47524;BME280;33253;42.144;25.884;2022-11-15T06:58:08;101153.19;;;7.34;100.00
47524;BME280;33253;42.144;25.884;2022-11-15T07:00:34;101030.28;;;6.68;100.00
47524;BME280;33253;42.144;25.884;2022-11-15T07:03:00;101153.41;;;7.37;100.00
47524;BME280;33253;42.144;25.884;2022-11-15T07:05:26;101173.78;;;7.49;100.00
47524;BME280;33253;42.144;25.884;2022-11-15T07:07:56;101170.59;;;7.38;100.00
47524;BME280;33253;42.144;25.884;2022-11-15T07:10:24;101162.97;;;7.39;100.00
47524;BME280;33253;42.144;25.884;2022-11-15T07:12:53;101160.06;;;7.48;100.00
47524;BME280;33253;42.144;25.884;2022-11-15T07:15:21;101162.31;;;7.57;100.00
47524;BME280;33253;42.144;25.884;2022-11-15T07:17:47;101035.72;;;6.88;100.00
47524;BME280;33253;42.144;25.884;2022-11-15T07:20:13;101134.91;;;7.57;100.00
47524;BME280;33253;42.144;25.884;2022-11-15T07:22:39;101029.69;;;7.01;100.00
47524;BME280;33253;42.144;25.884;2022-11-15T07:25:05;101162.09;;;7.82;100.00
47524;BME280;33253;42.144;25.884;2022-11-15T07:27:31;101131.31;;;7.69;100.00
47524;BME280;33253;42.144;25.884;2022-11-15T07:29:56;101160.94;;;7.77;100.00
47524;BME280;33253;42.144;25.884;2022-11-15T07:32:22;101166.53;;;7.85;100.00
47524;BME280;33253;42.144;25.884;2022-11-15T07:34:47;101162.38;;;7.87;100.00
47524;BME280;33253;42.144;25.884;2022-11-15T07:37:13;101136.81;;;7.75;100.00
47524;BME280;33253;42.144;25.884;2022-11-15T07:39:38;101141.09;;;7.89;100.00
47524;BME280;33253;42.144;25.884;2022-11-15T07:42:04;101173.53;;;8.02;100.00
47524;BME280;33253;42.144;25.884;2022-11-15T07:44:48;101157.41;;;8.05;100.00
47524;BME280;33253;42.144;25.884;2022-11-15T07:47:13;101152.53;;;8.09;100.00
47524;BME280;33253;42.144;25.884;2022-11-15T07:49:39;101145.53;;;8.07;100.00
47524;BME280;33253;42.144;25.884;2022-11-15T07:52:04;101157.69;;;8.09;100.00
47524;BME280;33253;42.144;25.884;2022-11-15T07:54:30;101148.66;;;8.16;100.00
47524;BME280;33253;42.144;25.884;2022-11-15T07:56:55;101151.47;;;8.21;100.00
47524;BME280;33253;42.144;25.884;2022-11-15T07:59:21;101151.38;;;8.19;100.00
47524;BME280;33253;42.144;25.884;2022-11-15T08:01:46;101033.41;;;7.49;100.00
47524;BME280;33253;42.144;25.884;2022-11-15T08:04:12;101156.72;;;8.22;100.00
47524;BME280;33253;42.144;25.884;2022-11-15T08:06:38;101097.09;;;7.85;100.00
47524;BME280;33253;42.144;25.884;2022-11-15T08:09:04;101159.53;;;8.27;100.00
47524;BME280;33253;42.144;25.884;2022-11-15T08:11:30;101071.50;;;7.86;100.00
47524;BME280;33253;42.144;25.884;2022-11-15T08:13:55;101160.16;;;8.38;100.00
47524;BME280;33253;42.144;25.884;2022-11-15T08:16:21;101057.47;;;7.81;100.00
47524;BME280;33253;42.144;25.884;2022-11-15T08:18:46;101163.38;;;8.49;100.00
47524;BME280;33253;42.144;25.884;2022-11-15T08:21:14;101158.31;;;8.50;100.00
47524;BME280;33253;42.144;25.884;2022-11-15T08:23:42;101161.16;;;8.55;100.00
47524;BME280;33253;42.144;25.884;2022-11-15T12:14:01;100866.78;;;11.36;100.00
47524;BME280;33253;42.144;25.884;2022-11-15T12:16:31;100864.69;;;11.48;100.00
47524;BME280;33253;42.144;25.884;2022-11-15T12:19:02;100864.69;;;11.48;100.00
47524;BME280;33253;42.144;25.884;2022-11-15T12:21:48;100826.09;;;11.30;100.00
47524;BME280;33253;42.144;25.884;2022-11-15T12:24:25;100859.91;;;11.58;100.00
47524;BME280;33253;42.144;25.884;2022-11-15T12:27:05;100857.06;;;11.52;100.00
47524;BME280;33253;42.144;25.884;2022-11-15T12:29:36;100843.75;;;11.42;100.00
47524;BME280;33253;42.144;25.884;2022-11-15T12:32:05;100847.25;;;11.43;100.00
47524;BME280;33253;42.144;25.884;2022-11-15T12:34:41;100850.84;;;11.46;100.00
47524;BME280;33253;42.144;25.884;2022-11-15T12:37:46;100850.84;;;11.46;100.00
47524;BME280;33253;42.144;25.884;2022-11-15T12:40:26;100845.81;;;11.51;100.00
47524;BME280;33253;42.144;25.884;2022-11-15T12:43:02;100846.00;;;11.56;100.00
47524;BME280;33253;42.144;25.884;2022-11-15T12:45:40;100844.00;;;11.48;100.00
47524;BME280;33253;42.144;25.884;2022-11-15T13:06:44;100822.03;;;11.60;95.50
47524;BME280;33253;42.144;25.884;2022-11-15T13:11:59;100817.84;;;11.63;94.57
47524;BME280;33253;42.144;25.884;2022-11-15T13:14:47;100814.63;;;11.69;95.93
47524;BME280;33253;42.144;25.884;2022-11-15T13:22:43;100759.81;;;11.55;94.87
47524;BME280;33253;42.144;25.884;2022-11-15T13:30:53;100791.19;;;11.64;94.82
47524;BME280;33253;42.144;25.884;2022-11-15T13:33:35;100764.66;;;11.47;94.50
47524;BME280;33253;42.144;25.884;2022-11-15T13:36:05;100770.59;;;11.45;95.01
47524;BME280;33253;42.144;25.884;2022-11-15T13:38:34;100801.53;;;11.64;95.87
47524;BME280;33253;42.144;25.884;2022-11-15T13:41:14;100794.59;;;11.63;96.48
47524;BME280;33253;42.144;25.884;2022-11-15T13:43:42;100762.94;;;11.46;96.93
47524;BME280;33253;42.144;25.884;2022-11-15T13:46:17;100786.63;;;11.59;96.61
47524;BME280;33253;42.144;25.884;2022-11-15T13:48:44;100780.56;;;11.57;95.94
47524;BME280;33253;42.144;25.884;2022-11-15T13:51:21;100790.19;;;11.61;96.08
47524;BME280;33253;42.144;25.884;2022-11-15T13:56:31;100784.81;;;11.56;94.17
47524;BME280;33253;42.144;25.884;2022-11-15T13:58:59;100772.66;;;11.54;94.35
47524;BME280;33253;42.144;25.884;2022-11-15T14:01:28;100769.06;;;11.50;94.27
47524;BME280;33253;42.144;25.884;2022-11-15T14:03:58;100769.22;;;11.53;94.06
47524;BME280;33253;42.144;25.884;2022-11-15T14:06:26;100770.22;;;11.57;93.70
47524;BME280;33253;42.144;25.884;2022-11-15T14:09:24;100757.28;;;11.57;93.92
47524;BME280;33253;42.144;25.884;2022-11-15T14:11:52;100761.63;;;11.58;95.03
47524;BME280;33253;42.144;25.884;2022-11-15T14:14:20;100759.28;;;11.64;95.15
47524;BME280;33253;42.144;25.884;2022-11-15T14:16:52;100753.19;;;11.63;94.98
47524;BME280;33253;42.144;25.884;2022-11-15T14:22:18;100747.38;;;11.69;94.80
47524;BME280;33253;42.144;25.884;2022-11-15T14:25:14;100750.97;;;11.73;94.04
47524;BME280;33253;42.144;25.884;2022-11-15T14:27:33;100737.03;;;11.69;93.51
47524;BME280;33253;42.144;25.884;2022-11-15T14:29:59;100734.56;;;11.72;93.96
47524;BME280;33253;42.144;25.884;2022-11-15T14:32:28;100710.69;;;11.55;94.19
47524;BME280;33253;42.144;25.884;2022-11-15T14:34:58;100729.34;;;11.71;95.09
47524;BME280;33253;42.144;25.884;2022-11-15T14:37:27;100728.63;;;11.75;94.27
47524;BME280;33253;42.144;25.884;2022-11-15T14:39:54;100732.09;;;11.75;93.75
47524;BME280;33253;42.144;25.884;2022-11-15T14:42:21;100728.63;;;11.75;93.54
47524;BME280;33253;42.144;25.884;2022-11-15T14:44:47;100718.25;;;11.75;93.60
47524;BME280;33253;42.144;25.884;2022-11-15T14:47:13;100716.63;;;11.77;94.10
47524;BME280;33253;42.144;25.884;2022-11-15T14:49:39;100719.16;;;11.75;93.53
47524;BME280;33253;42.144;25.884;2022-11-15T14:52:15;100714.84;;;11.76;93.67
47524;BME280;33253;42.144;25.884;2022-11-15T14:54:41;100707.06;;;11.74;93.96
47524;BME280;33253;42.144;25.884;2022-11-15T14:57:06;100708.56;;;11.68;94.28
47524;BME280;33253;42.144;25.884;2022-11-15T14:59:32;100708.38;;;11.63;95.20
47524;BME280;33253;42.144;25.884;2022-11-15T15:01:57;100701.25;;;11.57;94.61
47524;BME280;33253;42.144;25.884;2022-11-15T15:04:24;100706.47;;;11.59;94.93
47524;BME280;33253;42.144;25.884;2022-11-15T15:06:49;100707.16;;;11.53;95.09
47524;BME280;33253;42.144;25.884;2022-11-15T15:09:15;100679.91;;;11.39;95.51
47524;BME280;33253;42.144;25.884;2022-11-15T15:11:40;100701.81;;;11.48;94.56
47524;BME280;33253;42.144;25.884;2022-11-15T15:14:06;100706.19;;;11.51;95.58
47524;BME280;33253;42.144;25.884;2022-11-15T15:16:31;100716.50;;;11.49;95.98
47524;BME280;33253;42.144;25.884;2022-11-15T15:18:56;100710.16;;;11.41;97.13
47524;BME280;33253;42.144;25.884;2022-11-15T15:21:24;100678.25;;;11.16;97.52
47524;BME280;33253;42.144;25.884;2022-11-15T15:23:51;100701.00;;;11.27;97.97
47524;BME280;33253;42.144;25.884;2022-11-15T15:26:18;100715.53;;;11.23;98.55
47524;BME280;33253;42.144;25.884;2022-11-15T15:28:44;100706.91;;;11.23;98.91
47524;BME280;33253;42.144;25.884;2022-11-15T15:31:09;100715.28;;;11.17;98.76
47524;BME280;33253;42.144;25.884;2022-11-15T15:33:37;100722.09;;;11.15;99.41
47524;BME280;33253;42.144;25.884;2022-11-15T15:36:03;100718.16;;;11.02;100.00
47524;BME280;33253;42.144;25.884;2022-11-15T15:38:28;100710.88;;;10.92;100.00
47524;BME280;33253;42.144;25.884;2022-11-15T15:40:54;100711.75;;;10.92;100.00
47524;BME280;33253;42.144;25.884;2022-11-15T15:43:20;100699.28;;;10.82;99.98
47524;BME280;33253;42.144;25.884;2022-11-15T15:45:45;100714.09;;;10.86;100.00
47524;BME280;33253;42.144;25.884;2022-11-15T15:48:13;100716.84;;;10.91;100.00
47524;BME280;33253;42.144;25.884;2022-11-15T15:50:39;100715.81;;;10.86;100.00
47524;BME280;33253;42.144;25.884;2022-11-15T15:53:04;100702.78;;;10.84;100.00
47524;BME280;33253;42.144;25.884;2022-11-15T15:55:30;100691.31;;;10.76;100.00
47524;BME280;33253;42.144;25.884;2022-11-15T15:57:56;100708.16;;;10.89;100.00
47524;BME280;33253;42.144;25.884;2022-11-15T16:00:22;100704.03;;;10.94;100.00
47524;BME280;33253;42.144;25.884;2022-11-15T16:02:49;100678.88;;;10.88;100.00
47524;BME280;33253;42.144;25.884;2022-11-15T16:05:15;100694.75;;;10.99;100.00
47524;BME280;33253;42.144;25.884;2022-11-15T16:07:41;100693.03;;;10.98;100.00
47524;BME280;33253;42.144;25.884;2022-11-15T16:10:21;100658.06;;;10.85;100.00
47524;BME280;33253;42.144;25.884;2022-11-15T16:12:47;100677.59;;;10.99;100.00
47524;BME280;33253;42.144;25.884;2022-11-15T16:15:13;100595.66;;;10.51;100.00
47524;BME280;33253;42.144;25.884;2022-11-15T16:17:59;100694.91;;;11.02;100.00
47524;BME280;33253;42.144;25.884;2022-11-15T16:20:33;100693.09;;;10.99;100.00
47524;BME280;33253;42.144;25.884;2022-11-15T16:23:00;100677.81;;;10.83;100.00
47524;BME280;33253;42.144;25.884;2022-11-15T16:25:26;100699.34;;;10.83;100.00
47524;BME280;33253;42.144;25.884;2022-11-15T16:27:51;100697.53;;;10.81;100.00
47524;BME280;33253;42.144;25.884;2022-11-15T16:30:20;100684.88;;;10.66;100.00
47524;BME280;33253;42.144;25.884;2022-11-15T16:32:45;100675.25;;;10.62;100.00
47524;BME280;33253;42.144;25.884;2022-11-15T16:35:15;100685.59;;;10.62;100.00
47524;BME280;33253;42.144;25.884;2022-11-15T16:37:41;100675.13;;;10.59;100.00
47524;BME280;33253;42.144;25.884;2022-11-15T16:40:29;100674.38;;;10.61;100.00
47524;BME280;33253;42.144;25.884;2022-11-15T16:42:58;100677.72;;;10.59;100.00
47524;BME280;33253;42.144;25.884;2022-11-15T16:45:25;100680.19;;;10.56;100.00
47524;BME280;33253;42.144;25.884;2022-11-15T16:47:55;100633.50;;;10.30;100.00
47524;BME280;33253;42.144;25.884;2022-11-15T16:50:25;100675.84;;;10.55;100.00
47524;BME280;33253;42.144;25.884;2022-11-15T16:52:56;100668.69;;;10.28;100.00
47524;BME280;33253;42.144;25.884;2022-11-15T16:55:24;100672.97;;;10.27;100.00
47524;BME280;33253;42.144;25.884;2022-11-15T16:57:50;100674.66;;;10.27;100.00
47524;BME280;33253;42.144;25.884;2022-11-15T17:00:17;100679.16;;;10.31;100.00
47524;BME280;33253;42.144;25.884;2022-11-15T17:02:44;100664.91;;;10.19;100.00
47524;BME280;33253;42.144;25.884;2022-11-15T17:05:10;100671.97;;;10.24;100.00
47524;BME280;33253;42.144;25.884;2022-11-15T17:07:37;100683.28;;;10.27;100.00
47524;BME280;33253;42.144;25.884;2022-11-15T17:10:03;100640.22;;;10.05;100.00
47524;BME280;33253;42.144;25.884;2022-11-15T17:12:28;100668.09;;;10.14;100.00
47524;BME280;33253;42.144;25.884;2022-11-15T17:14:55;100683.31;;;10.08;100.00
47524;BME280;33253;42.144;25.884;2022-11-15T17:17:21;100573.47;;;9.30;100.00
47524;BME280;33253;42.144;25.884;2022-11-15T17:19:46;100658.47;;;9.69;100.00
47524;BME280;33253;42.144;25.884;2022-11-15T17:22:12;100668.03;;;9.71;100.00
47524;BME280;33253;42.144;25.884;2022-11-15T17:24:37;100659.50;;;9.73;100.00
47524;BME280;33253;42.144;25.884;2022-11-15T17:27:02;100660.63;;;9.79;100.00
47524;BME280;33253;42.144;25.884;2022-11-15T17:29:29;100659.81;;;9.80;100.00
47524;BME280;33253;42.144;25.884;2022-11-15T17:31:54;100616.63;;;9.55;100.00
47524;BME280;33253;42.144;25.884;2022-11-15T17:34:21;100649.25;;;9.74;100.00
47524;BME280;33253;42.144;25.884;2022-11-15T17:36:47;100664.84;;;9.77;100.00
47524;BME280;33253;42.144;25.884;2022-11-15T17:39:14;100662.81;;;9.70;100.00
47524;BME280;33253;42.144;25.884;2022-11-15T17:41:39;100665.25;;;9.67;100.00
47524;BME280;33253;42.144;25.884;2022-11-15T17:44:05;100660.78;;;9.63;100.00
47524;BME280;33253;42.144;25.884;2022-11-15T17:46:30;100657.25;;;9.61;100.00